createdAt,value
2023-01-08T00:01:17.761Z,3.50
2023-01-08T00:03:50.656Z,3.50
2023-01-08T00:06:21.313Z,3.50
2023-01-08T00:08:49.211Z,3.50
2023-01-08T00:11:17.039Z,3.52
2023-01-08T00:13:45.001Z,3.56
2023-01-08T00:16:16.629Z,3.60
2023-01-08T00:18:45.789Z,3.60
2023-01-08T00:21:13.776Z,3.60
2023-01-08T00:23:41.702Z,3.58
2023-01-08T00:26:10.518Z,3.58
2023-01-08T00:28:38.904Z,3.54
2023-01-08T00:31:39.398Z,3.58
2023-01-08T00:34:07.548Z,3.60
2023-01-08T00:36:35.419Z,3.60
2023-01-08T00:39:03.237Z,3.60
2023-01-08T00:41:31.160Z,3.60
2023-01-08T00:43:59.195Z,3.60
2023-01-08T00:46:28.108Z,3.60
2023-01-08T00:48:55.871Z,3.60
2023-01-08T00:51:23.747Z,3.68
2023-01-08T00:53:51.805Z,3.68
2023-01-08T00:56:19.782Z,3.68
2023-01-08T00:58:47.604Z,3.60
2023-01-08T01:01:15.743Z,3.60
2023-01-08T01:03:43.989Z,3.60
2023-01-08T01:06:12.244Z,3.60
2023-01-08T01:08:40.839Z,3.60
2023-01-08T01:11:21.384Z,3.60
2023-01-08T01:13:49.657Z,3.60
2023-01-08T01:16:17.639Z,3.52
2023-01-08T01:18:45.590Z,3.50
2023-01-08T01:21:21.535Z,3.50
2023-01-08T01:23:50.896Z,3.50
2023-01-08T01:26:20.444Z,3.50
2023-01-08T01:28:50.141Z,3.50
2023-01-08T01:31:18.150Z,3.50
2023-01-08T01:33:46.185Z,3.50
2023-01-08T01:36:15.458Z,3.50
2023-01-08T01:38:45.074Z,3.50
2023-01-08T01:41:39.393Z,3.50
2023-01-08T01:44:43.197Z,3.50
2023-01-08T01:47:33.218Z,3.50
2023-01-08T01:50:40.496Z,3.50
2023-01-08T01:53:19.738Z,3.50
2023-01-08T01:55:48.741Z,3.50
2023-01-08T01:58:28.124Z,3.50
2023-01-08T02:00:57.694Z,3.48
2023-01-08T02:03:30.876Z,3.50
2023-01-08T02:06:20.332Z,3.48
2023-01-08T02:09:06.511Z,3.48
2023-01-08T02:12:31.477Z,3.48
2023-01-08T02:15:11.882Z,3.40
2023-01-08T02:17:50.263Z,3.46
2023-01-08T02:20:30.312Z,3.48
2023-01-08T02:23:30.595Z,3.50
2023-01-08T02:26:27.730Z,3.50
2023-01-08T02:29:03.698Z,3.50
2023-01-08T02:31:32.172Z,3.50
2023-01-08T02:34:00.230Z,3.50
2023-01-08T02:37:06.822Z,3.50
2023-01-08T02:40:11.879Z,3.50
2023-01-08T02:43:01.847Z,3.50
2023-01-08T02:45:37.311Z,3.54
2023-01-08T02:48:19.929Z,3.50
2023-01-08T02:50:59.261Z,3.50
2023-01-08T02:53:37.287Z,3.50
2023-01-08T02:56:18.055Z,3.50
2023-01-08T02:58:48.030Z,3.50
2023-01-08T03:01:19.304Z,3.50
2023-01-08T03:03:51.389Z,3.50
2023-01-08T03:06:20.109Z,3.50
2023-01-08T03:08:51.630Z,3.50
2023-01-08T03:11:21.987Z,3.52
2023-01-08T03:14:02.149Z,3.54
2023-01-08T03:16:37.279Z,3.54
2023-01-08T03:19:43.013Z,3.60
2023-01-08T03:22:14.609Z,3.60
2023-01-08T03:24:43.783Z,3.60
2023-01-08T03:27:15.437Z,3.60
2023-01-08T03:29:43.601Z,3.60
2023-01-08T03:32:14.350Z,3.60
2023-01-08T03:34:43.550Z,3.60
2023-01-08T03:37:12.110Z,3.60
2023-01-08T03:40:01.369Z,3.60
2023-01-08T03:42:29.219Z,3.60
2023-01-08T03:44:56.950Z,3.60
2023-01-08T03:47:24.911Z,3.60
2023-01-08T03:49:52.948Z,3.60
2023-01-08T03:52:31.464Z,3.60
2023-01-08T03:54:59.260Z,3.70
2023-01-08T03:57:27.149Z,3.70
2023-01-08T03:59:54.980Z,3.70
2023-01-08T04:02:22.952Z,3.70
2023-01-08T04:04:51.017Z,3.70
2023-01-08T04:07:18.954Z,3.70
2023-01-08T04:09:47.202Z,3.70
2023-01-08T04:12:15.085Z,3.70
2023-01-08T04:14:42.875Z,3.70
2023-01-08T04:17:13.889Z,3.70
2023-01-08T04:19:41.713Z,3.70
2023-01-08T04:22:11.263Z,3.70
2023-01-08T04:24:39.214Z,3.70
2023-01-08T04:27:07.091Z,3.70
2023-01-08T04:29:34.932Z,3.70
2023-01-08T04:32:02.908Z,3.70
2023-01-08T04:34:30.978Z,3.70
2023-01-08T04:36:59.136Z,3.70
2023-01-08T04:39:27.064Z,3.70
2023-01-08T04:41:54.896Z,3.70
2023-01-08T04:44:22.738Z,3.68
2023-01-08T04:46:50.560Z,3.66
2023-01-08T04:49:18.615Z,3.60
2023-01-08T04:51:46.455Z,3.60
2023-01-08T04:54:14.430Z,3.60
2023-01-08T04:56:42.455Z,3.60
2023-01-08T04:59:10.467Z,3.60
2023-01-08T05:01:38.496Z,3.60
2023-01-08T05:04:06.742Z,3.60
2023-01-08T05:06:34.603Z,3.60
2023-01-08T05:09:02.449Z,3.60
2023-01-08T05:11:30.244Z,3.60
2023-01-08T05:13:58.293Z,3.60
2023-01-08T05:16:26.087Z,3.60
2023-01-08T05:18:53.954Z,3.60
2023-01-08T05:21:21.997Z,3.60
2023-01-08T05:23:49.820Z,3.60
2023-01-08T05:26:19.485Z,3.58
2023-01-08T05:28:47.429Z,3.52
2023-01-08T05:31:15.519Z,3.50
2023-01-08T05:33:43.661Z,3.50
2023-01-08T05:36:12.480Z,3.56
2023-01-08T05:38:40.468Z,3.58
2023-01-08T05:41:08.643Z,3.60
2023-01-08T05:43:36.739Z,3.60
2023-01-08T05:46:05.150Z,3.60
2023-01-08T05:48:34.691Z,3.60
2023-01-08T05:51:03.683Z,3.60
2023-01-08T05:53:33.117Z,3.60
2023-01-08T05:56:02.758Z,3.60
2023-01-08T05:58:30.852Z,3.60
2023-01-08T06:01:08.005Z,3.60
2023-01-08T06:03:37.070Z,3.60
2023-01-08T06:06:06.530Z,3.60
2023-01-08T06:08:34.382Z,3.60
2023-01-08T06:11:04.466Z,3.60
2023-01-08T06:13:33.638Z,3.60
2023-01-08T06:16:01.904Z,3.60
2023-01-08T06:18:30.094Z,3.60
2023-01-08T06:20:58.084Z,3.60
2023-01-08T06:23:26.151Z,3.60
2023-01-08T06:25:55.436Z,3.60
2023-01-08T06:28:23.802Z,3.60
2023-01-08T06:30:51.848Z,3.60
2023-01-08T06:33:21.381Z,3.60
2023-01-08T06:35:49.687Z,3.60
2023-01-08T06:38:20.678Z,3.60
2023-01-08T06:40:48.631Z,3.60
2023-01-08T06:43:17.742Z,3.60
2023-01-08T06:45:45.726Z,3.60
2023-01-08T06:48:13.690Z,3.60
2023-01-08T06:50:41.568Z,3.60
2023-01-08T06:53:09.534Z,3.60
2023-01-08T06:55:38.382Z,3.60
2023-01-08T06:58:06.278Z,3.60
2023-01-08T07:00:34.251Z,3.60
2023-01-08T07:03:02.282Z,3.60
2023-01-08T07:05:30.338Z,3.60
2023-01-08T07:07:58.570Z,3.60
2023-01-08T07:10:27.560Z,3.60
2023-01-08T07:12:55.475Z,3.60
2023-01-08T07:15:23.510Z,3.62
2023-01-08T07:17:51.585Z,3.64
2023-01-08T07:20:19.445Z,3.70
2023-01-08T07:22:47.408Z,3.70
2023-01-08T07:25:15.441Z,3.70
2023-01-08T07:27:43.248Z,3.70
2023-01-08T07:30:28.178Z,3.70
2023-01-08T07:33:00.280Z,3.70
2023-01-08T07:35:28.844Z,3.70
2023-01-08T07:37:56.732Z,3.70
2023-01-08T07:40:24.549Z,3.70
2023-01-08T07:43:03.407Z,3.70
2023-01-08T07:45:31.318Z,3.76
2023-01-08T07:47:59.908Z,3.80
2023-01-08T07:50:27.846Z,3.80
2023-01-08T07:53:00.317Z,3.80
2023-01-08T07:55:29.403Z,3.80
2023-01-08T07:57:57.243Z,3.80
2023-01-08T08:00:25.465Z,3.82
2023-01-08T08:02:53.566Z,3.90
2023-01-08T08:05:21.741Z,3.90
2023-01-08T08:07:49.545Z,3.90
2023-01-08T08:10:17.639Z,3.90
2023-01-08T08:12:45.823Z,3.90
2023-01-08T08:15:13.750Z,3.90
2023-01-08T08:17:46.435Z,3.90
2023-01-08T08:20:14.944Z,3.92
2023-01-08T08:22:42.843Z,4.00
2023-01-08T08:25:11.030Z,4.00
2023-01-08T08:27:38.951Z,4.00
2023-01-08T08:30:08.188Z,4.00
2023-01-08T08:32:36.091Z,4.00
2023-01-08T08:35:05.193Z,4.00
2023-01-08T08:37:33.172Z,4.00
2023-01-08T08:40:01.228Z,4.00
2023-01-08T08:42:29.178Z,4.00
2023-01-08T08:44:57.005Z,4.00
2023-01-08T08:47:24.929Z,4.00
2023-01-08T08:49:52.767Z,4.00
2023-01-08T08:52:20.619Z,4.08
2023-01-08T08:54:48.453Z,4.10
2023-01-08T08:57:16.252Z,4.18
2023-01-08T08:59:44.182Z,4.20
2023-01-08T09:02:12.206Z,4.20
2023-01-08T09:04:40.256Z,4.24
2023-01-08T09:07:08.337Z,4.30
2023-01-08T09:09:36.358Z,4.30
2023-01-08T09:12:04.419Z,4.40
2023-01-08T09:14:32.253Z,4.40
2023-01-08T09:17:00.202Z,4.40
2023-01-08T09:19:28.128Z,4.40
2023-01-08T09:21:56.721Z,4.40
2023-01-08T09:24:24.877Z,4.36
2023-01-08T09:26:55.576Z,4.30
2023-01-08T09:29:23.682Z,4.30
2023-01-08T09:31:51.663Z,4.30
2023-01-08T09:34:19.619Z,4.30
2023-01-08T09:36:47.631Z,4.30
2023-01-08T09:39:15.627Z,4.40
2023-01-08T09:41:46.268Z,4.40
2023-01-08T09:44:22.160Z,4.46
2023-01-08T09:46:50.225Z,4.50
2023-01-08T09:49:28.767Z,4.56
2023-01-08T09:51:56.616Z,4.60
2023-01-08T09:54:24.831Z,4.70
2023-01-08T09:56:53.161Z,4.70
2023-01-08T09:59:21.179Z,4.80
2023-01-08T10:01:49.413Z,4.80
2023-01-08T10:04:26.857Z,4.80
2023-01-08T10:06:56.931Z,4.80
2023-01-08T10:09:30.149Z,4.80
2023-01-08T10:12:04.614Z,4.80
2023-01-08T10:14:38.017Z,4.80
2023-01-08T10:17:30.615Z,4.80
2023-01-08T10:19:58.575Z,4.80
2023-01-08T10:22:32.039Z,4.80
2023-01-08T10:25:27.473Z,4.80
2023-01-08T10:28:00.928Z,4.80
2023-01-08T10:30:36.145Z,4.80
2023-01-08T10:33:06.794Z,4.80
2023-01-08T10:35:37.191Z,4.80
2023-01-08T10:38:05.251Z,4.80
2023-01-08T10:40:51.646Z,4.80
2023-01-08T10:43:22.542Z,4.80
2023-01-08T10:46:00.193Z,4.80
2023-01-08T10:48:38.765Z,4.80
2023-01-08T10:51:21.887Z,4.86
2023-01-08T10:53:50.670Z,4.82
2023-01-08T10:56:26.369Z,4.80
2023-01-08T10:58:54.689Z,4.80
2023-01-08T11:01:28.881Z,4.80
2023-01-08T11:04:06.575Z,4.80
2023-01-08T11:06:40.390Z,4.80
2023-01-08T11:09:41.918Z,4.76
2023-01-08T11:12:42.237Z,4.70
2023-01-08T11:15:17.903Z,4.72
2023-01-08T11:17:45.831Z,4.80
2023-01-08T11:20:31.988Z,4.80
2023-01-08T11:23:15.083Z,4.80
2023-01-08T11:25:47.822Z,4.80
2023-01-08T11:28:21.333Z,4.80
2023-01-08T11:30:55.459Z,4.80
2023-01-08T11:33:24.085Z,4.80
2023-01-08T11:36:02.365Z,4.82
2023-01-08T11:38:30.354Z,4.90
2023-01-08T11:41:19.745Z,4.90
2023-01-08T11:44:33.556Z,5.00
2023-01-08T11:47:28.961Z,5.00
2023-01-08T11:50:35.387Z,5.00
2023-01-08T11:53:10.251Z,5.10
2023-01-08T11:56:26.449Z,5.10
2023-01-08T11:59:26.703Z,5.10
2023-01-08T12:02:32.455Z,5.20
2023-01-08T12:05:22.035Z,5.20
2023-01-08T12:08:28.149Z,5.24
2023-01-08T12:11:18.198Z,5.30
2023-01-08T12:14:02.703Z,5.30
2023-01-08T12:16:39.396Z,5.40
2023-01-08T12:19:25.749Z,5.40
2023-01-08T12:22:06.419Z,5.40
2023-01-08T12:25:11.861Z,5.40
2023-01-08T12:28:03.925Z,5.50
2023-01-08T12:31:10.657Z,5.50
2023-01-08T12:34:07.861Z,5.50
2023-01-08T12:36:40.597Z,5.50
2023-01-08T12:39:52.383Z,5.56
2023-01-08T12:42:24.579Z,5.60
2023-01-08T12:44:54.452Z,5.60
2023-01-08T12:47:25.757Z,5.60
2023-01-08T12:50:14.901Z,5.60
2023-01-08T12:52:56.155Z,5.60
2023-01-08T12:55:34.159Z,5.50
2023-01-08T12:58:37.971Z,5.40
2023-01-08T13:01:42.742Z,5.40
2023-01-08T13:04:10.904Z,5.30
2023-01-08T13:06:38.947Z,5.30
2023-01-08T13:09:06.898Z,5.30
2023-01-08T13:11:37.148Z,5.30
2023-01-08T13:14:12.223Z,5.30
2023-01-08T13:16:41.816Z,5.30
2023-01-08T13:19:27.518Z,5.30
2023-01-08T13:21:57.595Z,5.30
2023-01-08T13:24:37.312Z,5.28
2023-01-08T13:27:14.589Z,5.30
2023-01-08T13:29:43.197Z,5.30
2023-01-08T13:32:46.275Z,5.30
2023-01-08T13:35:14.726Z,5.28
2023-01-08T13:37:51.468Z,5.24
2023-01-08T13:40:44.631Z,5.20
2023-01-08T13:43:18.258Z,5.20
2023-01-08T13:46:08.200Z,5.10
2023-01-08T13:49:06.966Z,5.10
2023-01-08T13:51:47.538Z,5.08
2023-01-08T13:54:37.650Z,5.10
2023-01-08T13:57:16.504Z,5.04
2023-01-08T13:59:56.279Z,5.00
2023-01-08T14:02:44.646Z,5.00
2023-01-08T14:05:23.100Z,5.00
2023-01-08T14:07:51.204Z,5.00
2023-01-08T14:10:19.277Z,5.00
2023-01-08T14:12:47.079Z,4.90
2023-01-08T14:15:27.973Z,4.90
2023-01-08T14:17:56.808Z,4.90
2023-01-08T14:20:35.860Z,4.90
2023-01-08T14:23:18.331Z,4.90
2023-01-08T14:25:52.163Z,4.84
2023-01-08T14:28:22.728Z,4.80
2023-01-08T14:30:52.635Z,4.76
2023-01-08T14:33:28.994Z,4.72
2023-01-08T14:35:56.976Z,4.70
2023-01-08T14:38:24.763Z,4.70
2023-01-08T14:41:05.069Z,4.70
2023-01-08T14:43:43.553Z,4.70
2023-01-08T14:46:44.916Z,4.70
2023-01-08T14:49:26.268Z,4.70
2023-01-08T14:51:55.671Z,4.68
2023-01-08T14:54:28.763Z,4.60
2023-01-08T14:56:58.474Z,4.60
2023-01-08T14:59:29.791Z,4.60
2023-01-08T15:02:01.732Z,4.60
2023-01-08T15:04:30.379Z,4.56
2023-01-08T15:07:21.161Z,4.50
2023-01-08T15:10:01.388Z,4.50
2023-01-08T15:12:33.464Z,4.50
2023-01-08T15:15:23.139Z,4.50
2023-01-08T15:17:51.249Z,4.50
2023-01-08T15:20:19.463Z,4.50
2023-01-08T15:22:47.411Z,4.40
2023-01-08T15:25:20.512Z,4.40
2023-01-08T15:27:56.981Z,4.34
2023-01-08T15:30:29.772Z,4.30
2023-01-08T15:33:25.037Z,4.30
2023-01-08T15:35:53.057Z,4.20
2023-01-08T15:38:21.925Z,4.20
2023-01-08T15:40:50.434Z,4.20
2023-01-08T15:43:18.755Z,4.20
2023-01-08T15:45:48.520Z,4.14
2023-01-08T15:48:16.356Z,4.12
2023-01-08T15:50:44.312Z,4.10
2023-01-08T15:53:22.503Z,4.10
2023-01-08T15:55:51.458Z,4.10
2023-01-08T15:58:19.500Z,4.10
2023-01-08T16:00:47.531Z,4.10
2023-01-08T16:03:15.753Z,4.10
2023-01-08T16:05:43.695Z,4.10
2023-01-08T16:08:12.209Z,4.10
2023-01-08T16:10:39.980Z,4.10
2023-01-08T16:13:10.317Z,4.08
2023-01-08T16:15:42.359Z,4.06
2023-01-08T16:18:10.267Z,4.04
2023-01-08T16:20:38.451Z,4.08
2023-01-08T16:23:06.625Z,4.08
2023-01-08T16:25:34.911Z,4.10
2023-01-08T16:28:03.472Z,4.10
2023-01-08T16:30:31.647Z,4.10
2023-01-08T16:32:59.535Z,4.10
2023-01-08T16:35:27.495Z,4.10
2023-01-08T16:37:56.585Z,4.10
2023-01-08T16:40:24.439Z,4.10
2023-01-08T16:42:52.590Z,4.16
2023-01-08T16:45:20.677Z,4.20
2023-01-08T16:47:48.799Z,4.20
2023-01-08T16:50:16.671Z,4.20
2023-01-08T16:52:45.147Z,4.20
2023-01-08T16:55:14.311Z,4.20
2023-01-08T16:57:42.271Z,4.20
2023-01-08T17:00:11.752Z,4.20
2023-01-08T17:02:39.904Z,4.28
2023-01-08T17:05:08.356Z,4.26
2023-01-08T17:07:36.712Z,4.26
2023-01-08T17:10:05.361Z,4.30
2023-01-08T17:12:33.404Z,4.30
2023-01-08T17:15:01.915Z,4.30
2023-01-08T17:17:29.800Z,4.30
2023-01-08T17:19:57.848Z,4.30
2023-01-08T17:22:25.912Z,4.40
2023-01-08T17:24:53.880Z,4.40
2023-01-08T17:27:21.843Z,4.40
2023-01-08T17:29:49.900Z,4.40
2023-01-08T17:32:17.701Z,4.40
2023-01-08T17:34:45.707Z,4.46
2023-01-08T17:37:15.437Z,4.50
2023-01-08T17:39:43.865Z,4.50
2023-01-08T17:42:28.209Z,4.50
2023-01-08T17:44:58.316Z,4.50
2023-01-08T17:47:26.388Z,4.40
2023-01-08T17:49:55.794Z,4.40
2023-01-08T17:52:25.389Z,4.40
2023-01-08T17:54:53.471Z,4.30
2023-01-08T17:57:21.433Z,4.30
2023-01-08T17:59:50.588Z,4.28
2023-01-08T18:02:18.759Z,4.22
2023-01-08T18:04:46.911Z,4.20
2023-01-08T18:07:15.601Z,4.20
2023-01-08T18:09:44.847Z,4.20
2023-01-08T18:12:12.757Z,4.20
2023-01-08T18:14:41.630Z,4.20
2023-01-08T18:17:10.577Z,4.14
2023-01-08T18:19:38.655Z,4.10
2023-01-08T18:22:06.653Z,4.10
2023-01-08T18:24:35.200Z,4.10
2023-01-08T18:27:03.268Z,4.10
2023-01-08T18:29:31.232Z,4.06
2023-01-08T18:32:00.451Z,4.00
2023-01-08T18:34:28.980Z,4.00
2023-01-08T18:36:56.863Z,4.00
2023-01-08T18:39:26.752Z,4.00
2023-01-08T18:42:13.679Z,4.00
2023-01-08T18:44:41.775Z,4.00
2023-01-08T18:47:12.385Z,4.00
2023-01-08T18:49:40.513Z,4.00
2023-01-08T18:52:08.683Z,4.00
2023-01-08T18:54:36.725Z,3.94
2023-01-08T18:57:05.064Z,3.90
2023-01-08T18:59:33.182Z,3.90
2023-01-08T19:02:01.395Z,3.90
2023-01-08T19:04:30.402Z,3.90
2023-01-08T19:06:59.209Z,3.90
2023-01-08T19:09:28.242Z,3.90
2023-01-08T19:11:56.563Z,3.90
2023-01-08T19:14:24.643Z,3.90
2023-01-08T19:16:53.195Z,3.90
2023-01-08T19:19:21.783Z,3.88
2023-01-08T19:21:49.982Z,3.86
2023-01-08T19:24:17.979Z,3.84
2023-01-08T19:26:46.210Z,3.86
2023-01-08T19:29:14.539Z,3.84
2023-01-08T19:31:42.469Z,3.80
2023-01-08T19:34:10.842Z,3.80
2023-01-08T19:36:39.509Z,3.80
2023-01-08T19:39:11.231Z,3.80
2023-01-08T19:41:58.045Z,3.80
2023-01-08T19:44:26.015Z,3.80
2023-01-08T19:46:54.613Z,3.80
2023-01-08T19:49:23.995Z,3.80
2023-01-08T19:51:52.728Z,3.86
2023-01-08T19:54:23.739Z,3.82
2023-01-08T19:56:53.440Z,3.90
2023-01-08T19:59:21.578Z,3.90
2023-01-08T20:01:49.598Z,3.90
2023-01-08T20:04:18.094Z,3.90
2023-01-08T20:06:46.065Z,3.90
2023-01-08T20:09:14.219Z,3.90
2023-01-08T20:11:42.124Z,3.90
2023-01-08T20:14:10.232Z,3.90
2023-01-08T20:16:38.056Z,3.90
2023-01-08T20:19:06.812Z,3.90
2023-01-08T20:21:34.921Z,3.90
2023-01-08T20:24:09.509Z,3.90
2023-01-08T20:26:37.762Z,3.90
2023-01-08T20:29:06.028Z,3.84
2023-01-08T20:31:34.609Z,3.80
2023-01-08T20:34:05.382Z,3.80
2023-01-08T20:36:34.335Z,3.80
2023-01-08T20:39:08.697Z,3.80
2023-01-08T20:41:36.746Z,3.80
2023-01-08T20:44:06.857Z,3.70
2023-01-08T20:46:35.974Z,3.70
2023-01-08T20:49:11.198Z,3.70
2023-01-08T20:51:44.090Z,3.70
2023-01-08T20:54:16.054Z,3.70
2023-01-08T20:56:44.772Z,3.64
2023-01-08T20:59:12.669Z,3.60
2023-01-08T21:01:40.638Z,3.60
2023-01-08T21:04:09.148Z,3.60
2023-01-08T21:06:36.997Z,3.60
2023-01-08T21:09:08.415Z,3.60
2023-01-08T21:11:39.618Z,3.58
2023-01-08T21:14:10.950Z,3.50
2023-01-08T21:16:40.536Z,3.50
2023-01-08T21:19:11.692Z,3.50
2023-01-08T21:21:40.892Z,3.50
2023-01-08T21:24:11.512Z,3.50
2023-01-08T21:26:39.505Z,3.50
2023-01-08T21:29:08.047Z,3.50
2023-01-08T21:31:36.547Z,3.50
2023-01-08T21:34:05.055Z,3.50
2023-01-08T21:36:33.122Z,3.50
2023-01-08T21:39:01.686Z,3.50
2023-01-08T21:41:48.722Z,3.50
2023-01-08T21:44:41.011Z,3.50
2023-01-08T21:47:16.588Z,3.50
2023-01-08T21:49:45.565Z,3.50
2023-01-08T21:52:32.828Z,3.50
2023-01-08T21:55:01.617Z,3.50
2023-01-08T21:57:29.592Z,3.46
2023-01-08T21:59:58.738Z,3.46
2023-01-08T22:02:26.815Z,3.42
2023-01-08T22:04:56.108Z,3.40
2023-01-08T22:07:25.615Z,3.40
2023-01-08T22:09:53.805Z,3.40
2023-01-08T22:12:23.068Z,3.40
2023-01-08T22:14:54.834Z,3.42
2023-01-08T22:17:23.926Z,3.42
2023-01-08T22:19:52.272Z,3.40
2023-01-08T22:22:21.329Z,3.40
2023-01-08T22:24:52.045Z,3.42
2023-01-08T22:27:20.923Z,3.40
2023-01-08T22:29:49.015Z,3.40
2023-01-08T22:32:18.008Z,3.40
2023-01-08T22:34:46.078Z,3.42
2023-01-08T22:37:14.333Z,3.42
2023-01-08T22:39:42.202Z,3.50
2023-01-08T22:42:10.065Z,3.50
2023-01-08T22:44:38.123Z,3.50
2023-01-08T22:47:08.508Z,3.50
2023-01-08T22:49:37.847Z,3.50
2023-01-08T22:52:06.439Z,3.50
2023-01-08T22:54:34.389Z,3.48
2023-01-08T22:57:02.273Z,3.40
2023-01-08T22:59:30.339Z,3.40
2023-01-08T23:01:58.141Z,3.40
2023-01-08T23:04:26.108Z,3.40
2023-01-08T23:06:54.055Z,3.40
2023-01-08T23:09:21.953Z,3.30
2023-01-08T23:11:49.911Z,3.30
2023-01-08T23:14:17.759Z,3.30
2023-01-08T23:16:45.790Z,3.22
2023-01-08T23:19:14.114Z,3.20
2023-01-08T23:21:42.298Z,3.20
2023-01-08T23:24:12.571Z,3.20
2023-01-08T23:26:41.029Z,3.12
2023-01-08T23:29:09.469Z,3.10
2023-01-08T23:31:41.211Z,3.10
2023-01-08T23:34:09.161Z,3.10
2023-01-08T23:36:37.114Z,3.08
2023-01-08T23:39:05.216Z,3.10
2023-01-08T23:41:34.874Z,3.10
2023-01-08T23:44:12.486Z,3.10
2023-01-08T23:46:40.490Z,3.10
2023-01-08T23:49:08.695Z,3.16
2023-01-08T23:51:37.200Z,3.20
2023-01-08T23:54:05.145Z,3.20
2023-01-08T23:56:33.141Z,3.22
2023-01-08T23:59:00.956Z,3.30
